Time;durP1;ratioP1;P1;durP2;ratioP2;P2;SDS_P1;SDS_P2;PMS_P1;PMS_P2;Temp;Humidity;BMP_temperature;BMP_pressure;BME280_temperature;BME280_humidity;BME280_pressure;Samples;Min_cycle;Max_cycle;Signal;HPM_P1;HPM_P2
2022/09/04 00:01:16;;;;;;;1.88;1.30;;;20.10;99.90;;;;;;5110693;28;20003;-72
2022/09/04 00:03:56;;;;;;;3.50;1.83;;;20.10;99.90;;;;;;5089792;28;20040;-72
2022/09/04 00:06:28;;;;;;;2.13;1.52;;;20.10;99.90;;;;;;5101337;28;20032;-73
2022/09/04 00:09:01;;;;;;;1.92;1.75;;;20.10;99.90;;;;;;5104431;28;20028;-73
2022/09/04 00:11:43;;;;;;;1.80;1.70;;;20.10;99.90;;;;;;5102112;28;20043;-73
2022/09/04 00:14:44;;;;;;;4.10;1.50;;;20.10;99.90;;;;;;5101879;28;20478;-73
2022/09/04 00:17:27;;;;;;;3.58;1.50;;;20.10;99.90;;;;;;5058117;28;20040;-73
2022/09/04 00:19:59;;;;;;;2.97;1.38;;;20.10;99.90;;;;;;5111836;28;20198;-73
2022/09/04 00:22:32;;;;;;;;;;;20.10;99.90;;;;;;5106633;28;20549;-72
2022/09/04 00:25:09;;;;;;;2.92;1.52;;;20.00;99.90;;;;;;5097624;28;20338;-72
2022/09/04 00:27:43;;;;;;;2.00;1.60;;;20.00;99.90;;;;;;5101934;28;20386;-72
2022/09/04 00:30:20;;;;;;;1.40;1.20;;;20.00;99.90;;;;;;5111119;28;20110;-73
2022/09/04 00:32:57;;;;;;;2.13;1.40;;;20.00;99.90;;;;;;5104850;28;20059;-72
2022/09/04 00:35:35;;;;;;;2.17;1.35;;;20.00;99.90;;;;;;5095081;28;20035;-72
2022/09/04 00:38:25;;;;;;;3.55;1.50;;;20.00;99.90;;;;;;5104066;28;20115;-74
2022/09/04 00:41:15;;;;;;;6.80;1.90;;;20.00;99.90;;;;;;5096974;28;20024;-73
2022/09/04 00:44:12;;;;;;;1.20;1.20;;;19.90;99.90;;;;;;5100360;28;20012;-73
2022/09/04 00:47:05;;;;;;;3.88;1.40;;;19.80;99.90;;;;;;5108116;28;20023;-73
2022/09/04 00:49:59;;;;;;;2.40;1.70;;;19.70;99.90;;;;;;5103979;28;20020;-73
2022/09/04 00:52:37;;;;;;;6.70;1.80;;;19.80;99.90;;;;;;5104512;28;20039;-73
2022/09/04 00:55:30;;;;;;;3.53;1.67;;;19.70;99.90;;;;;;5096021;28;20020;-73
2022/09/04 00:58:34;;;;;;;2.58;1.50;;;19.70;99.90;;;;;;5106886;28;20035;-73
2022/09/04 01:01:01;;;;;;;1.30;1.20;;;19.70;99.90;;;;;;5017172;28;20029;-73
2022/09/04 01:03:58;;;;;;;2.38;1.38;;;19.70;99.90;;;;;;5001574;28;20030;-73
2022/09/04 01:06:41;;;;;;;2.03;1.30;;;19.70;99.90;;;;;;5078512;28;20028;-73
2022/09/04 01:09:31;;;;;;;1.67;1.58;;;19.70;99.90;;;;;;5112232;28;20016;-74
2022/09/04 01:12:27;;;;;;;1.95;1.23;;;19.70;99.90;;;;;;5099997;28;20036;-74
2022/09/04 01:15:13;;;;;;;1.38;1.30;;;19.70;99.90;;;;;;5100846;28;20046;-73
2022/09/04 01:17:59;;;;;;;1.50;1.40;;;19.70;99.90;;;;;;5091465;28;20051;-72
2022/09/04 01:20:56;;;;;;;1.80;1.60;;;19.70;99.90;;;;;;5082244;28;20082;-72
2022/09/04 01:23:34;;;;;;;2.67;1.58;;;19.70;99.90;;;;;;5101754;28;20028;-72
2022/09/04 01:26:29;;;;;;;3.10;1.50;;;19.70;99.90;;;;;;5109638;28;20016;-72
2022/09/04 01:29:25;;;;;;;4.97;1.65;;;19.70;99.90;;;;;;5094704;28;20063;-72
2022/09/04 01:31:57;;;;;;;1.48;1.35;;;19.70;99.90;;;;;;5103110;28;20062;-72
2022/09/04 01:34:52;;;;;;;1.40;1.30;;;19.70;99.90;;;;;;5105838;28;20022;-72
2022/09/04 01:37:43;;;;;;;3.03;1.40;;;19.90;99.90;;;;;;5098517;28;20135;-72
2022/09/04 01:40:32;;;;;;;1.50;1.10;;;20.00;99.90;;;;;;5110942;28;20478;-72
2022/09/04 01:43:17;;;;;;;1.60;1.25;;;20.10;99.90;;;;;;5098355;28;20020;-72
2022/09/04 01:46:19;;;;;;;1.55;1.45;;;20.20;99.90;;;;;;5109471;28;20023;-72
2022/09/04 01:48:54;;;;;;;1.58;1.48;;;20.30;99.90;;;;;;5091520;28;20024;-72
2022/09/04 01:51:44;;;;;;;3.75;1.45;;;20.30;99.90;;;;;;5097406;28;20123;-72
2022/09/04 01:54:40;;;;;;;2.42;1.25;;;20.40;99.90;;;;;;5096741;28;20383;-72
2022/09/04 01:57:35;;;;;;;3.65;1.45;;;20.50;99.90;;;;;;5105282;28;20475;-72
2022/09/04 02:00:12;;;;;;;3.63;1.60;;;20.50;99.90;;;;;;5093951;28;20024;-72
2022/09/04 02:02:51;;;;;;;6.30;1.45;;;20.50;99.90;;;;;;5106174;28;20027;-72
2022/09/04 02:05:41;;;;;;;1.50;1.40;;;20.60;99.90;;;;;;5079091;28;20042;-72
2022/09/04 02:08:22;;;;;;;2.55;1.55;;;20.60;99.90;;;;;;5098097;28;20054;-73
2022/09/04 02:11:17;;;;;;;3.47;1.83;;;20.70;99.90;;;;;;5108633;28;20027;-73
2022/09/04 02:14:05;;;;;;;2.70;1.50;;;20.70;99.90;;;;;;5099152;28;20020;-73
2022/09/04 02:16:55;;;;;;;2.75;1.45;;;20.70;99.90;;;;;;5103971;28;20028;-72
2022/09/04 02:20:07;;;;;;;1.92;1.73;;;20.70;99.80;;;;;;5096091;28;20024;-72
2022/09/04 02:22:47;;;;;;;3.88;2.00;;;20.80;99.80;;;;;;5086381;28;20060;-73
2022/09/04 02:25:21;;;;;;;1.58;1.48;;;20.70;99.60;;;;;;5078583;28;20536;-72
2022/09/04 02:28:18;;;;;;;3.33;1.60;;;20.80;99.50;;;;;;5094447;28;20027;-73
2022/09/04 02:31:14;;;;;;;4.40;1.38;;;20.80;99.40;;;;;;5106967;28;20061;-73
2022/09/04 02:34:03;;;;;;;2.25;1.60;;;20.70;99.60;;;;;;5102101;28;20467;-72
2022/09/04 02:36:46;;;;;;;1.40;1.30;;;20.60;99.60;;;;;;5082294;28;20047;-72
2022/09/04 02:39:46;;;;;;;1.40;1.30;;;20.50;99.70;;;;;;5099686;28;20482;-72
2022/09/04 02:42:30;;;;;;;3.55;1.50;;;20.50;99.80;;;;;;5102402;28;20035;-72
2022/09/04 02:44:58;;;;;;;2.10;1.90;;;20.40;99.90;;;;;;5094518;27;20426;-72
2022/09/04 02:47:38;;;;;;;2.70;1.40;;;20.40;99.90;;;;;;5099329;28;20021;-72
2022/09/04 02:50:10;;;;;;;1.58;1.40;;;20.30;99.90;;;;;;5109316;28;20032;-72
2022/09/04 02:53:16;;;;;;;1.88;1.40;;;20.30;99.90;;;;;;5096124;28;20549;-72
2022/09/04 02:56:16;;;;;;;1.42;1.33;;;20.20;99.90;;;;;;5081282;28;20514;-73
2022/09/04 02:59:04;;;;;;;1.23;1.13;;;20.20;99.90;;;;;;5085501;28;20047;-73
2022/09/04 03:01:43;;;;;;;1.98;1.20;;;20.20;99.90;;;;;;5099152;28;20020;-72
2022/09/04 03:04:19;;;;;;;3.35;1.50;;;20.10;99.90;;;;;;5109113;28;20450;-73
2022/09/04 03:07:07;;;;;;;2.05;1.65;;;20.00;99.90;;;;;;5098987;28;20028;-72
2022/09/04 03:09:45;;;;;;;1.52;1.13;;;20.10;99.90;;;;;;5101776;28;20058;-72
2022/09/04 03:12:30;;;;;;;2.13;1.33;;;20.00;99.90;;;;;;5103153;28;20124;-72
2022/09/04 03:15:08;;;;;;;1.50;1.40;;;19.90;99.90;;;;;;5092712;28;20110;-72
2022/09/04 03:17:57;;;;;;;1.83;1.55;;;19.90;99.90;;;;;;5099659;28;20026;-72
2022/09/04 03:20:26;;;;;;;1.63;1.40;;;20.00;99.90;;;;;;5079212;28;20047;-72
2022/09/04 03:23:19;;;;;;;1.63;1.52;;;19.90;99.90;;;;;;5093165;28;20486;-72
2022/09/04 03:26:08;;;;;;;2.78;1.80;;;19.90;99.90;;;;;;5107614;28;20019;-72
2022/09/04 03:29:02;;;;;;;2.70;2.03;;;19.90;99.90;;;;;;5095198;28;20027;-72
2022/09/04 03:31:40;;;;;;;2.00;1.65;;;19.80;99.90;;;;;;5099436;28;20057;-72
2022/09/04 03:34:26;;;;;;;2.72;1.95;;;19.80;99.90;;;;;;5097876;28;20012;-72
2022/09/04 03:36:52;;;;;;;7.03;1.88;;;19.80;99.90;;;;;;5096050;28;20051;-72
2022/09/04 03:39:29;;;;;;;1.50;1.40;;;19.80;99.90;;;;;;5104553;28;20027;-73
2022/09/04 03:42:23;;;;;;;2.40;1.60;;;19.80;99.90;;;;;;5102879;28;20474;-73
2022/09/04 03:45:31;;;;;;;4.28;1.70;;;19.70;99.90;;;;;;5092891;28;20035;-73
2022/09/04 03:48:15;;;;;;;1.98;1.85;;;19.70;99.90;;;;;;5085003;28;20465;-73
2022/09/04 03:51:00;;;;;;;2.85;1.70;;;19.70;99.90;;;;;;5093541;28;20035;-73
2022/09/04 03:53:39;;;;;;;1.67;1.42;;;19.70;99.90;;;;;;5102482;28;20028;-73
2022/09/04 03:56:25;;;;;;;2.35;1.50;;;19.60;99.90;;;;;;5096836;28;20113;-72
2022/09/04 03:59:04;;;;;;;4.60;1.55;;;19.60;99.90;;;;;;5057557;28;20085;-72
2022/09/04 04:01:51;;;;;;;3.03;2.10;;;19.60;99.90;;;;;;5103477;28;20125;-72
2022/09/04 04:04:45;;;;;;;2.67;1.80;;;19.60;99.90;;;;;;5097026;28;20026;-72
2022/09/04 04:07:38;;;;;;;3.25;1.92;;;19.60;99.90;;;;;;5099346;28;20024;-72
2022/09/04 04:10:22;;;;;;;3.97;1.83;;;19.60;99.90;;;;;;5108389;28;20043;-72
2022/09/04 04:13:20;;;;;;;4.68;1.60;;;19.70;99.90;;;;;;5101344;28;20023;-72
2022/09/04 04:16:23;;;;;;;3.78;1.77;;;19.70;99.90;;;;;;5094395;28;20051;-72
2022/09/04 04:19:09;;;;;;;4.10;2.00;;;19.70;99.90;;;;;;5018703;28;20040;-72
2022/09/04 04:22:02;;;;;;;3.35;1.80;;;19.80;99.90;;;;;;5092567;28;20020;-72
2022/09/04 04:24:46;;;;;;;2.30;2.03;;;19.80;99.90;;;;;;5105420;28;20650;-72
2022/09/04 04:27:27;;;;;;;1.90;1.58;;;19.80;99.90;;;;;;5099385;28;20038;-73
2022/09/04 04:30:22;;;;;;;1.95;1.70;;;19.90;99.90;;;;;;5093333;28;20024;-73
2022/09/04 04:32:59;;;;;;;2.17;1.70;;;20.00;99.90;;;;;;5082169;28;20040;-73
2022/09/04 04:35:42;;;;;;;1.65;1.55;;;20.10;99.90;;;;;;5108318;28;20118;-73
2022/09/04 04:38:31;;;;;;;3.15;1.90;;;20.10;99.90;;;;;;5102890;28;20024;-73
2022/09/04 04:41:20;;;;;;;5.60;2.00;;;20.20;99.90;;;;;;5098297;28;20097;-73
2022/09/04 04:44:18;;;;;;;5.47;2.00;;;20.20;99.90;;;;;;5101495;28;20470;-73
2022/09/04 04:47:13;;;;;;;2.33;1.52;;;20.20;99.90;;;;;;5107199;28;20035;-73
2022/09/04 04:50:02;;;;;;;1.83;1.73;;;20.20;99.90;;;;;;5104990;28;20107;-73
2022/09/04 04:52:52;;;;;;;2.03;1.80;;;20.20;99.90;;;;;;5099635;28;20032;-73
2022/09/04 04:55:40;;;;;;;2.45;1.95;;;20.20;99.90;;;;;;5096061;27;20028;-73
2022/09/04 04:58:25;;;;;;;2.17;1.73;;;20.30;99.90;;;;;;5100482;28;20540;-73
2022/09/04 05:01:22;;;;;;;2.63;2.08;;;20.30;99.90;;;;;;5108169;28;20020;-73
2022/09/04 05:04:16;;;;;;;6.05;2.00;;;20.30;99.90;;;;;;5105458;28;20024;-73
2022/09/04 05:06:58;;;;;;;3.72;2.13;;;20.40;99.90;;;;;;5103095;28;20102;-74
2022/09/04 05:09:39;;;;;;;4.10;1.75;;;20.50;99.90;;;;;;5101553;28;20081;-74
2022/09/04 05:12:10;;;;;;;5.78;2.08;;;20.40;99.90;;;;;;5103368;28;20040;-74
2022/09/04 05:14:44;;;;;;;1.88;1.77;;;20.40;99.90;;;;;;5108273;28;20024;-74
2022/09/04 05:17:46;;;;;;;3.50;2.10;;;20.40;99.90;;;;;;5104673;28;20031;-74
2022/09/04 05:20:26;;;;;;;2.45;1.98;;;20.50;99.90;;;;;;5081036;28;20036;-73
2022/09/04 05:23:18;;;;;;;1.73;1.63;;;20.50;99.90;;;;;;5093962;28;20031;-72
2022/09/04 05:26:06;;;;;;;2.85;1.73;;;20.50;99.90;;;;;;5108237;28;20119;-73
2022/09/04 05:28:39;;;;;;;4.03;2.08;;;20.50;99.90;;;;;;5105692;28;20024;-73
2022/09/04 05:31:19;;;;;;;2.45;1.73;;;20.50;99.90;;;;;;5099117;28;20056;-72
2022/09/04 05:34:05;;;;;;;2.65;1.90;;;20.50;99.90;;;;;;5096473;28;20031;-72
2022/09/04 05:37:01;;;;;;;2.08;1.88;;;20.40;99.90;;;;;;5100412;28;20452;-73
2022/09/04 05:39:41;;;;;;;4.53;2.20;;;20.40;99.90;;;;;;5101828;28;20035;-73
2022/09/04 05:42:25;;;;;;;1.75;1.65;;;20.60;99.90;;;;;;5107642;27;20104;-72
2022/09/04 05:45:06;;;;;;;2.58;1.83;;;20.60;99.90;;;;;;5096029;28;20035;-73
2022/09/04 05:47:51;;;;;;;2.90;2.00;;;20.70;99.90;;;;;;5100475;28;20675;-73
2022/09/04 05:50:44;;;;;;;3.05;1.90;;;20.80;99.90;;;;;;5079101;28;20036;-73
2022/09/04 05:53:38;;;;;;;;;;;21.00;99.90;;;;;;5101716;28;20612;-73
2022/09/04 05:56:18;;;;;;;2.35;1.77;;;21.10;99.90;;;;;;5089800;28;19911;-72
2022/09/04 05:59:10;;;;;;;2.65;1.83;;;21.20;99.90;;;;;;5099759;28;20023;-74
2022/09/04 06:01:57;;;;;;;4.25;1.70;;;21.40;99.90;;;;;;5106444;28;20043;-74
2022/09/04 06:04:40;;;;;;;2.35;1.83;;;21.50;99.90;;;;;;5100006;28;20713;-74
2022/09/04 06:07:18;;;;;;;2.58;1.70;;;21.60;99.90;;;;;;5102836;28;20028;-74
2022/09/04 06:10:13;;;;;;;2.58;1.83;;;21.80;99.90;;;;;;5112631;27;20030;-74
2022/09/04 06:12:51;;;;;;;3.15;1.80;;;21.90;99.90;;;;;;5099798;28;20040;-78
2022/09/04 06:15:38;;;;;;;2.35;1.67;;;22.00;99.90;;;;;;5078857;28;20027;-74
2022/09/04 06:18:13;;;;;;;1.70;1.60;;;22.00;99.90;;;;;;5097669;28;20024;-75
2022/09/04 06:21:09;;;;;;;2.20;1.60;;;22.10;99.90;;;;;;5108596;28;20103;-74
2022/09/04 06:24:10;;;;;;;2.80;2.10;;;22.00;99.90;;;;;;5101405;28;20020;-74
2022/09/04 06:26:54;;;;;;;2.00;1.90;;;22.10;99.90;;;;;;5098449;28;20038;-77
2022/09/04 06:29:35;;;;;;;2.10;1.80;;;22.20;99.90;;;;;;5098876;28;20023;-77
2022/09/04 06:32:21;;;;;;;4.13;2.20;;;22.30;99.90;;;;;;5103338;28;20058;-78
2022/09/04 06:35:30;;;;;;;3.03;2.20;;;22.50;99.90;;;;;;5107351;28;20019;-77
2022/09/04 06:38:32;;;;;;;3.13;2.05;;;22.50;99.90;;;;;;5062310;28;20079;-78
2022/09/04 06:40:58;;;;;;;2.30;1.90;;;22.70;99.90;;;;;;5104634;28;20027;-77
2022/09/04 06:43:27;;;;;;;3.88;1.63;;;22.70;99.90;;;;;;5104228;28;20021;-76
2022/09/04 06:46:20;;;;;;;3.22;1.95;;;22.70;99.90;;;;;;5096672;28;20059;-77
2022/09/04 06:48:55;;;;;;;2.33;2.00;;;22.70;99.90;;;;;;5097776;28;20489;-77
2022/09/04 06:51:47;;;;;;;3.55;1.90;;;22.70;99.90;;;;;;5103735;28;20479;-76
2022/09/04 06:54:39;;;;;;;3.47;1.73;;;22.70;99.90;;;;;;5068591;28;20040;-79
2022/09/04 06:57:29;;;;;;;2.15;1.80;;;22.70;99.90;;;;;;5103650;28;20641;-80
2022/09/04 07:00:10;;;;;;;2.42;1.80;;;22.70;99.90;;;;;;5095098;28;20020;-76
2022/09/04 07:02:57;;;;;;;6.90;2.70;;;22.70;99.90;;;;;;5097179;28;20027;-78
2022/09/04 07:05:45;;;;;;;2.63;1.98;;;22.70;99.90;;;;;;5079514;28;20473;-77
2022/09/04 07:08:48;;;;;;;4.60;2.35;;;22.70;99.90;;;;;;5099832;28;20489;-82
2022/09/04 07:11:27;;;;;;;2.42;1.90;;;22.80;99.90;;;;;;5104727;28;20032;-78
2022/09/04 07:14:32;;;;;;;4.78;1.92;;;22.90;99.90;;;;;;5099448;28;20028;-80
2022/09/04 07:17:16;;;;;;;6.60;2.60;;;23.00;99.90;;;;;;5103716;28;20023;-80
2022/09/04 07:20:12;;;;;;;4.57;2.10;;;23.30;99.90;;;;;;5095476;28;20016;-80
2022/09/04 07:23:05;;;;;;;8.57;2.60;;;23.50;99.90;;;;;;5096741;28;20052;-81
2022/09/04 07:25:49;;;;;;;5.88;2.30;;;23.90;99.60;;;;;;5094962;28;20023;-81
2022/09/04 07:28:49;;;;;;;3.97;1.90;;;24.30;99.10;;;;;;5093995;28;20027;-81
2022/09/04 07:31:28;;;;;;;2.50;2.17;;;24.60;98.70;;;;;;5093701;28;20432;-81
2022/09/04 07:34:28;;;;;;;3.38;1.88;;;24.90;98.10;;;;;;5099545;28;20015;-83
2022/09/04 07:37:00;;;;;;;1.80;1.70;;;25.10;98.00;;;;;;5067044;28;20082;-81
2022/09/04 07:40:02;;;;;;;3.50;1.70;;;25.20;97.50;;;;;;5096434;28;20024;-81
2022/09/04 07:42:43;;;;;;;3.97;2.30;;;25.30;97.40;;;;;;5095577;28;20034;-80
2022/09/04 07:45:32;;;;;;;5.43;2.28;;;25.40;97.20;;;;;;5108860;28;20016;-80
2022/09/04 07:48:27;;;;;;;3.67;2.20;;;25.30;97.20;;;;;;5104169;28;20035;-79
2022/09/04 07:51:04;;;;;;;12.38;3.95;;;25.20;97.30;;;;;;5094959;28;20547;-79
2022/09/04 07:53:30;;;;;;;5.68;3.00;;;25.00;97.60;;;;;;5099273;28;20051;-79
2022/09/04 07:56:38;;;;;;;9.77;3.15;;;25.00;97.90;;;;;;5105789;28;20046;-79
2022/09/04 07:59:25;;;;;;;7.00;2.80;;;24.80;98.10;;;;;;5073014;28;20032;-79
2022/09/04 08:02:14;;;;;;;6.40;2.90;;;24.60;98.40;;;;;;5105100;28;20112;-79
2022/09/04 08:05:01;;;;;;;6.30;2.30;;;24.50;99.10;;;;;;5107353;28;20110;-79
2022/09/04 08:07:33;;;;;;;2.38;2.10;;;24.50;99.90;;;;;;5103689;28;20031;-80
2022/09/04 08:10:14;;;;;;;3.97;2.28;;;24.30;99.90;;;;;;5093680;28;20028;-79
2022/09/04 08:13:13;;;;;;;2.53;1.92;;;24.30;99.90;;;;;;5091657;28;20040;-80
2022/09/04 08:15:54;;;;;;;3.38;2.10;;;24.30;99.90;;;;;;5086972;28;20024;-80
2022/09/04 08:18:39;;;;;;;2.58;2.00;;;24.30;99.90;;;;;;5101712;28;20035;-80
2022/09/04 08:21:32;;;;;;;2.15;1.95;;;24.30;99.90;;;;;;5107026;28;20020;-79
2022/09/04 08:23:58;;;;;;;;;;;24.30;99.90;;;;;;5094259;28;20031;-80
2022/09/04 08:26:45;;;;;;;3.42;2.00;;;24.30;99.90;;;;;;5100347;28;19908;-80
2022/09/04 08:29:48;;;;;;;4.82;2.20;;;24.30;99.90;;;;;;5107373;28;20496;-79
2022/09/04 08:32:35;;;;;;;2.20;1.90;;;24.30;99.90;;;;;;5106238;28;20036;-81
2022/09/04 08:35:20;;;;;;;2.75;1.95;;;24.30;99.90;;;;;;5111791;28;20024;-80
2022/09/04 08:38:19;;;;;;;3.05;2.22;;;24.50;99.90;;;;;;5104194;28;20513;-80
2022/09/04 08:40:56;;;;;;;2.38;2.08;;;24.50;99.90;;;;;;5066877;28;20118;-79
2022/09/04 08:44:06;;;;;;;2.83;2.20;;;24.50;99.90;;;;;;5100449;28;20039;-84
2022/09/04 08:47:00;;;;;;;3.85;2.33;;;24.50;99.90;;;;;;5043664;28;20040;-80
2022/09/04 08:49:48;;;;;;;2.40;2.20;;;24.50;99.90;;;;;;5102615;28;20114;-80
2022/09/04 08:52:38;;;;;;;3.30;2.45;;;24.50;99.90;;;;;;5104295;28;20054;-82
2022/09/04 08:55:22;;;;;;;3.80;2.28;;;24.50;99.90;;;;;;5111668;28;20036;-81
2022/09/04 08:57:51;;;;;;;3.45;2.15;;;24.40;99.90;;;;;;5103256;28;20019;-84
2022/09/04 09:00:37;;;;;;;2.70;2.28;;;24.40;99.90;;;;;;5098219;28;20019;-87
2022/09/04 09:03:12;;;;;;;2.35;2.05;;;24.30;99.90;;;;;;5092892;28;20028;-80
2022/09/04 09:05:52;;;;;;;3.55;2.22;;;24.20;99.90;;;;;;5114380;28;20055;-84
2022/09/04 09:09:08;;;;;;;2.95;2.17;;;24.30;99.90;;;;;;5104329;28;20016;-82
2022/09/04 09:11:52;;;;;;;3.25;2.83;;;24.30;99.90;;;;;;5065111;28;20040;-83
2022/09/04 09:14:42;;;;;;;2.50;2.20;;;24.30;99.90;;;;;;5094050;28;20024;-83
2022/09/04 09:17:15;;;;;;;3.72;2.08;;;24.30;99.90;;;;;;5105221;28;20059;-83
2022/09/04 09:19:44;;;;;;;4.90;2.40;;;24.40;99.90;;;;;;5094361;28;20024;-81
2022/09/04 09:22:41;;;;;;;4.68;2.45;;;24.40;99.90;;;;;;5103400;28;20020;-82
2022/09/04 09:25:13;;;;;;;2.45;2.25;;;24.50;99.90;;;;;;5111208;28;20029;-83
2022/09/04 09:27:48;;;;;;;;;;;24.50;99.90;;;;;;5094777;28;20477;-84
2022/09/04 09:30:21;;;;;;;8.73;2.47;;;24.70;99.90;;;;;;5095348;28;19904;-82
2022/09/04 09:33:06;;;;;;;4.63;2.58;;;24.70;99.90;;;;;;5094868;28;20039;-81
2022/09/04 09:36:26;;;;;;;4.50;2.50;;;24.60;99.90;;;;;;5111005;28;20397;-84
2022/09/04 09:38:52;;;;;;;4.00;2.22;;;24.60;99.90;;;;;;5038596;28;20038;-82
2022/09/04 09:41:36;;;;;;;3.08;2.50;;;24.70;99.90;;;;;;5078880;28;20027;-82
2022/09/04 09:44:20;;;;;;;3.22;2.30;;;24.70;99.90;;;;;;5105443;28;20119;-85
2022/09/04 09:47:10;;;;;;;3.50;2.47;;;24.70;99.90;;;;;;5106497;27;20020;-83
2022/09/04 09:49:48;;;;;;;4.25;2.35;;;24.70;99.90;;;;;;5104216;28;20023;-82
2022/09/04 09:52:44;;;;;;;4.88;2.53;;;24.90;99.90;;;;;;5099718;28;20035;-81
2022/09/04 09:56:07;;;;;;;3.53;2.40;;;25.00;99.90;;;;;;5080002;28;20093;-85
2022/09/04 09:58:48;;;;;;;6.68;2.47;;;25.10;99.90;;;;;;5038248;28;20159;-86
2022/09/04 10:01:31;;;;;;;3.97;2.50;;;25.10;99.90;;;;;;5035073;28;20029;-81
2022/09/04 10:04:19;;;;;;;5.20;2.33;;;25.00;99.90;;;;;;5081400;28;20024;-82
2022/09/04 10:07:23;;;;;;;4.47;2.53;;;25.00;99.90;;;;;;5101850;28;20047;-83
2022/09/04 10:10:20;;;;;;;3.20;2.42;;;25.00;99.90;;;;;;5107638;28;20027;-83
2022/09/04 10:13:24;;;;;;;3.70;2.40;;;25.10;99.90;;;;;;5103237;28;20414;-83
2022/09/04 10:16:27;;;;;;;3.30;2.95;;;25.10;99.90;;;;;;5098374;28;20628;-82
2022/09/04 10:19:01;;;;;;;8.52;2.70;;;25.20;99.90;;;;;;5100040;28;20027;-82
2022/09/04 10:21:49;;;;;;;2.40;2.20;;;25.20;99.90;;;;;;5099409;28;20024;-81
2022/09/04 10:24:34;;;;;;;2.53;2.22;;;25.10;99.90;;;;;;5100444;28;20557;-82
2022/09/04 10:27:25;;;;;;;3.90;2.53;;;25.10;99.90;;;;;;5098181;28;20401;-82
2022/09/04 10:29:59;;;;;;;7.15;2.60;;;25.00;99.90;;;;;;5111959;28;20055;-81
2022/09/04 10:32:31;;;;;;;3.65;2.40;;;25.00;99.90;;;;;;5098208;28;20043;-81
2022/09/04 10:35:08;;;;;;;;;;;25.10;99.90;;;;;;5110597;28;20107;-80
2022/09/04 10:38:01;;;;;;;7.07;2.67;;;25.20;99.90;;;;;;5097472;28;19938;-79
2022/09/04 10:40:47;;;;;;;3.00;2.63;;;25.40;99.90;;;;;;5081163;28;20051;-80
2022/09/04 10:43:30;;;;;;;3.15;2.80;;;25.40;99.90;;;;;;5099213;28;20135;-81
2022/09/04 10:46:27;;;;;;;3.15;2.30;;;25.50;99.90;;;;;;5105230;28;20038;-82
2022/09/04 10:49:05;;;;;;;4.35;2.72;;;25.50;99.90;;;;;;5100001;28;20050;-81
2022/09/04 10:51:55;;;;;;;4.20;2.80;;;25.50;99.90;;;;;;5105074;28;20036;-81
2022/09/04 10:54:49;;;;;;;5.32;2.75;;;25.60;99.90;;;;;;5098988;28;20428;-83
2022/09/04 10:57:37;;;;;;;2.83;1.98;;;25.70;99.90;;;;;;5092067;28;20548;-83
2022/09/04 11:00:12;;;;;;;4.22;2.88;;;25.60;99.90;;;;;;5106611;28;20058;-82
2022/09/04 11:03:06;;;;;;;4.45;2.22;;;25.60;99.90;;;;;;5110646;28;20024;-83
2022/09/04 11:05:39;;;;;;;3.42;2.65;;;25.40;99.90;;;;;;5080158;28;20072;-81
2022/09/04 11:08:19;;;;;;;5.00;2.92;;;25.40;99.90;;;;;;5095484;28;20064;-79
2022/09/04 11:11:13;;;;;;;4.78;2.40;;;25.40;99.90;;;;;;5106755;28;20122;-83
2022/09/04 11:13:55;;;;;;;3.05;2.28;;;25.30;99.90;;;;;;5095731;28;20028;-84
2022/09/04 11:16:48;;;;;;;4.33;2.40;;;25.20;99.90;;;;;;5103259;28;20443;-79
2022/09/04 11:19:44;;;;;;;2.72;2.30;;;25.30;99.90;;;;;;5098046;28;20296;-79
2022/09/04 11:22:33;;;;;;;3.38;2.38;;;25.20;99.90;;;;;;5103864;28;20034;-80
2022/09/04 11:25:31;;;;;;;4.85;2.50;;;25.20;99.90;;;;;;5094516;28;20027;-81
2022/09/04 11:28:03;;;;;;;4.03;2.35;;;25.30;99.90;;;;;;5102027;28;20031;-82
2022/09/04 11:31:02;;;;;;;2.78;2.50;;;25.10;99.90;;;;;;5093612;28;20057;-84
2022/09/04 11:34:15;;;;;;;3.35;2.13;;;25.20;99.90;;;;;;5107490;28;20547;-80
2022/09/04 11:36:47;;;;;;;5.15;2.90;;;25.10;99.90;;;;;;5097434;28;20048;-80
2022/09/04 11:39:31;;;;;;;5.95;4.40;;;25.10;99.90;;;;;;5092006;28;20051;-85
2022/09/04 11:42:31;;;;;;;9.60;7.20;;;25.00;99.90;;;;;;5099339;28;20035;-84
2022/09/04 11:45:16;;;;;;;8.82;6.68;;;25.00;99.90;;;;;;5094704;28;20028;-85
2022/09/04 11:48:14;;;;;;;6.85;5.38;;;25.00;99.90;;;;;;5097453;28;20031;-83
2022/09/04 11:51:05;;;;;;;5.72;4.68;;;24.90;99.90;;;;;;5088625;28;20046;-81
2022/09/04 11:53:40;;;;;;;4.70;3.63;;;24.90;99.90;;;;;;5097194;28;20055;-84
2022/09/04 11:56:43;;;;;;;3.65;3.00;;;24.80;99.90;;;;;;5108241;28;20106;-81
2022/09/04 11:59:19;;;;;;;5.40;3.45;;;25.00;99.90;;;;;;5102281;28;20031;-83
2022/09/04 12:02:03;;;;;;;4.68;3.30;;;25.00;99.90;;;;;;5105006;28;20055;-79
2022/09/04 12:05:04;;;;;;;2.35;2.15;;;24.90;99.90;;;;;;5100471;28;20024;-78
2022/09/04 12:07:49;;;;;;;4.45;2.67;;;25.00;99.90;;;;;;5062099;27;20420;-79
2022/09/04 12:10:41;;;;;;;3.38;3.08;;;25.30;99.90;;;;;;5078625;28;20024;-84
2022/09/04 12:13:38;;;;;;;3.97;2.45;;;26.30;99.90;;;;;;5100373;28;20039;-84
2022/09/04 12:16:33;;;;;;;10.45;4.00;;;27.70;99.90;;;;;;5097505;28;20051;-89
2022/09/04 12:19:26;;;;;;;2.72;2.28;;;29.00;99.80;;;;;;5116464;28;20012;-90
2022/09/04 12:22:07;;;;;;;3.97;1.67;;;30.10;98.10;;;;;;5109462;27;20093;-90
2022/09/04 12:24:57;;;;;;;5.00;2.33;;;31.30;95.70;;;;;;5115865;28;20119;-82
2022/09/04 12:28:01;;;;;;;13.82;2.38;;;31.90;94.50;;;;;;5099761;28;20180;-79
2022/09/04 12:30:47;;;;;;;3.53;1.80;;;32.40;93.70;;;;;;5083931;28;20115;-83
2022/09/04 12:33:30;;;;;;;5.13;1.85;;;33.20;92.90;;;;;;5111762;28;20031;-86
2022/09/04 12:36:35;;;;;;;2.03;1.83;;;33.80;92.10;;;;;;5113611;28;20039;-89
2022/09/04 12:39:28;;;;;;;2.67;1.73;;;33.90;91.80;;;;;;5070152;28;20029;-87
2022/09/04 12:42:02;;;;;;;5.18;1.80;;;33.70;91.20;;;;;;5109868;28;20077;-88
2022/09/04 12:44:34;;;;;;;3.53;1.83;;;33.50;91.00;;;;;;5117355;28;20024;-88
2022/09/04 12:47:14;;;;;;;9.90;1.98;;;34.10;90.70;;;;;;5101725;28;20024;-89
2022/09/04 12:50:16;;;;;;;3.10;2.08;;;35.30;90.20;;;;;;5100515;28;20028;-85
2022/09/04 12:52:54;;;;;;;;;;;35.70;87.40;;;;;;5111666;28;20028;-87
2022/09/04 12:56:01;;;;;;;3.60;2.17;;;35.00;86.60;;;;;;5111589;28;19915;-83
2022/09/04 12:58:47;;;;;;;2.40;1.48;;;34.60;87.10;;;;;;5059072;28;20467;-85
2022/09/04 13:01:28;;;;;;;1.75;1.65;;;34.30;86.70;;;;;;5045609;28;20024;-87
2022/09/04 13:04:33;;;;;;;1.47;1.20;;;34.30;86.60;;;;;;5080537;28;20032;-85
2022/09/04 13:07:23;;;;;;;2.53;2.00;;;34.60;85.60;;;;;;5084133;28;20083;-86
2022/09/04 13:10:20;;;;;;;5.40;2.35;;;34.50;84.90;;;;;;5096199;28;20024;-87
2022/09/04 13:12:54;;;;;;;5.25;2.53;;;34.70;85.40;;;;;;5102210;28;20031;-87
2022/09/04 13:15:47;;;;;;;4.13;1.40;;;34.30;86.60;;;;;;5094539;28;20058;-86
2022/09/04 13:18:33;;;;;;;6.50;2.35;;;34.40;88.20;;;;;;5103281;28;20524;-86
2022/09/04 13:21:17;;;;;;;2.58;1.73;;;34.50;85.20;;;;;;5097585;28;20024;-87
2022/09/04 13:24:08;;;;;;;3.47;2.60;;;34.70;86.50;;;;;;5100052;28;20027;-85
2022/09/04 13:26:33;;;;;;;6.10;1.67;;;34.70;84.80;;;;;;5106165;28;20390;-84
2022/09/04 13:29:14;;;;;;;3.33;1.73;;;34.80;84.40;;;;;;5102536;28;20020;-83
2022/09/04 13:32:17;;;;;;;4.03;2.33;;;34.80;83.70;;;;;;5098333;28;20364;-83
2022/09/04 13:34:57;;;;;;;3.35;3.05;;;36.00;82.50;;;;;;5104586;28;20049;-85
2022/09/04 13:37:46;;;;;;;2.22;2.00;;;36.00;82.20;;;;;;5058136;28;20173;-81
2022/09/04 13:40:45;;;;;;;2.90;2.53;;;35.60;83.20;;;;;;5025483;28;20040;-83
2022/09/04 13:43:39;;;;;;;3.45;1.52;;;36.30;82.40;;;;;;5057513;28;20529;-82
2022/09/04 13:46:11;;;;;;;3.90;1.60;;;36.20;81.70;;;;;;5062410;28;20025;-83
2022/09/04 13:48:54;;;;;;;2.22;1.70;;;36.20;78.50;;;;;;5057206;28;20521;-82
2022/09/04 13:51:35;;;;;;;3.33;1.83;;;36.70;79.30;;;;;;5066462;28;20035;-83
2022/09/04 13:54:36;;;;;;;1.83;1.38;;;37.40;76.20;;;;;;5064312;28;20403;-83
2022/09/04 13:57:08;;;;;;;2.83;1.42;;;37.50;76.00;;;;;;5055502;28;20082;-80
2022/09/04 13:59:35;;;;;;;2.58;1.50;;;38.00;73.20;;;;;;5066654;28;20036;-81
2022/09/04 14:02:07;;;;;;;2.15;1.70;;;38.00;73.90;;;;;;5064462;28;20024;-84
2022/09/04 14:04:46;;;;;;;1.98;1.70;;;37.60;73.20;;;;;;5067266;28;20101;-82
2022/09/04 14:07:38;;;;;;;1.75;1.42;;;37.50;74.10;;;;;;5063336;28;20043;-82
2022/09/04 14:10:24;;;;;;;2.05;1.80;;;37.50;74.00;;;;;;5036409;28;20045;-82
2022/09/04 14:12:58;;;;;;;1.95;1.70;;;37.10;72.70;;;;;;5063574;28;20115;-83
2022/09/04 14:15:56;;;;;;;3.55;1.48;;;36.80;75.20;;;;;;5054759;28;20040;-84
2022/09/04 14:18:28;;;;;;;3.00;1.27;;;36.50;76.50;;;;;;5062603;28;20083;-82
2022/09/04 14:21:10;;;;;;;1.42;1.25;;;36.30;75.50;;;;;;5057670;28;20024;-83
2022/09/04 14:23:38;;;;;;;1.88;1.30;;;35.90;78.50;;;;;;5056941;28;20407;-83
2022/09/04 14:26:18;;;;;;;3.70;1.42;;;36.10;78.60;;;;;;5055850;28;20028;-83
2022/09/04 14:28:50;;;;;;;2.05;1.25;;;36.40;77.60;;;;;;5056862;28;20056;-84